sensor_id;sensor_type;location;lat;lon;timestamp;P1;durP1;ratioP1;P2;durP2;ratioP2
55003;SDS011;40900;52.710;6.438;2023-04-15T00:00:13;13.93;;;6.35;;
55003;SDS011;40900;52.710;6.438;2023-04-15T00:02:40;12.35;;;6.00;;
55003;SDS011;40900;52.710;6.438;2023-04-15T00:05:06;9.55;;;5.93;;
55003;SDS011;40900;52.710;6.438;2023-04-15T00:07:32;12.85;;;6.82;;
55003;SDS011;40900;52.710;6.438;2023-04-15T00:09:58;10.65;;;5.93;;
55003;SDS011;40900;52.710;6.438;2023-04-15T00:12:24;10.27;;;6.97;;
55003;SDS011;40900;52.710;6.438;2023-04-15T00:14:51;15.48;;;6.22;;
55003;SDS011;40900;52.710;6.438;2023-04-15T00:17:17;13.32;;;6.00;;
55003;SDS011;40900;52.710;6.438;2023-04-15T00:19:43;12.13;;;6.20;;
55003;SDS011;40900;52.710;6.438;2023-04-15T00:22:11;8.27;;;5.60;;
55003;SDS011;40900;52.710;6.438;2023-04-15T00:24:38;10.32;;;6.28;;
55003;SDS011;40900;52.710;6.438;2023-04-15T00:27:04;12.13;;;6.55;;
55003;SDS011;40900;52.710;6.438;2023-04-15T00:29:30;15.02;;;6.68;;
55003;SDS011;40900;52.710;6.438;2023-04-15T00:31:56;12.45;;;6.70;;
55003;SDS011;40900;52.710;6.438;2023-04-15T00:34:22;13.27;;;6.15;;
55003;SDS011;40900;52.710;6.438;2023-04-15T00:36:48;13.48;;;6.88;;
55003;SDS011;40900;52.710;6.438;2023-04-15T00:39:15;11.60;;;6.28;;
55003;SDS011;40900;52.710;6.438;2023-04-15T00:41:41;12.50;;;6.53;;
55003;SDS011;40900;52.710;6.438;2023-04-15T00:44:08;10.75;;;6.53;;
55003;SDS011;40900;52.710;6.438;2023-04-15T00:46:35;10.57;;;5.60;;
55003;SDS011;40900;52.710;6.438;2023-04-15T00:49:04;12.25;;;6.07;;
55003;SDS011;40900;52.710;6.438;2023-04-15T00:51:31;9.90;;;6.22;;
55003;SDS011;40900;52.710;6.438;2023-04-15T00:54:00;11.80;;;6.40;;
55003;SDS011;40900;52.710;6.438;2023-04-15T00:56:30;15.20;;;6.50;;
55003;SDS011;40900;52.710;6.438;2023-04-15T00:58:59;12.00;;;6.68;;
55003;SDS011;40900;52.710;6.438;2023-04-15T01:01:26;15.75;;;6.75;;
55003;SDS011;40900;52.710;6.438;2023-04-15T01:03:52;13.25;;;6.43;;
55003;SDS011;40900;52.710;6.438;2023-04-15T01:06:21;11.65;;;6.57;;
55003;SDS011;40900;52.710;6.438;2023-04-15T01:08:47;12.48;;;6.38;;
55003;SDS011;40900;52.710;6.438;2023-04-15T01:11:13;13.32;;;6.70;;
55003;SDS011;40900;52.710;6.438;2023-04-15T01:13:40;12.02;;;6.43;;
55003;SDS011;40900;52.710;6.438;2023-04-15T01:16:07;10.70;;;6.15;;
55003;SDS011;40900;52.710;6.438;2023-04-15T01:18:33;11.43;;;6.47;;
55003;SDS011;40900;52.710;6.438;2023-04-15T01:21:01;14.00;;;6.43;;
55003;SDS011;40900;52.710;6.438;2023-04-15T01:23:29;16.45;;;6.47;;
55003;SDS011;40900;52.710;6.438;2023-04-15T01:25:55;11.35;;;6.70;;
55003;SDS011;40900;52.710;6.438;2023-04-15T01:28:21;11.70;;;6.53;;
55003;SDS011;40900;52.710;6.438;2023-04-15T01:30:47;11.95;;;7.28;;
55003;SDS011;40900;52.710;6.438;2023-04-15T01:33:13;9.40;;;6.63;;
55003;SDS011;40900;52.710;6.438;2023-04-15T01:35:38;12.63;;;6.65;;
55003;SDS011;40900;52.710;6.438;2023-04-15T01:38:07;15.75;;;7.20;;
55003;SDS011;40900;52.710;6.438;2023-04-15T01:40:33;14.30;;;6.80;;
55003;SDS011;40900;52.710;6.438;2023-04-15T01:43:02;12.65;;;6.55;;
55003;SDS011;40900;52.710;6.438;2023-04-15T01:45:28;16.25;;;6.63;;
55003;SDS011;40900;52.710;6.438;2023-04-15T01:47:54;14.48;;;7.45;;
55003;SDS011;40900;52.710;6.438;2023-04-15T01:50:20;10.18;;;6.80;;
55003;SDS011;40900;52.710;6.438;2023-04-15T01:52:46;12.43;;;6.93;;
55003;SDS011;40900;52.710;6.438;2023-04-15T01:55:12;12.55;;;6.90;;
55003;SDS011;40900;52.710;6.438;2023-04-15T01:57:39;11.63;;;7.45;;
55003;SDS011;40900;52.710;6.438;2023-04-15T02:00:05;12.93;;;7.22;;
55003;SDS011;40900;52.710;6.438;2023-04-15T02:02:34;13.02;;;7.18;;
55003;SDS011;40900;52.710;6.438;2023-04-15T02:05:00;13.13;;;7.10;;
55003;SDS011;40900;52.710;6.438;2023-04-15T02:07:25;13.90;;;7.50;;
55003;SDS011;40900;52.710;6.438;2023-04-15T02:09:52;14.68;;;7.53;;
55003;SDS011;40900;52.710;6.438;2023-04-15T02:12:18;15.23;;;7.63;;
55003;SDS011;40900;52.710;6.438;2023-04-15T02:14:44;11.27;;;7.28;;
55003;SDS011;40900;52.710;6.438;2023-04-15T02:17:10;11.20;;;7.72;;
55003;SDS011;40900;52.710;6.438;2023-04-15T02:19:36;13.30;;;7.90;;
55003;SDS011;40900;52.710;6.438;2023-04-15T02:22:01;13.18;;;8.07;;
55003;SDS011;40900;52.710;6.438;2023-04-15T02:24:28;14.68;;;7.97;;
55003;SDS011;40900;52.710;6.438;2023-04-15T02:26:55;12.27;;;8.45;;
55003;SDS011;40900;52.710;6.438;2023-04-15T02:29:21;13.20;;;9.00;;
55003;SDS011;40900;52.710;6.438;2023-04-15T02:31:47;12.07;;;8.48;;
55003;SDS011;40900;52.710;6.438;2023-04-15T02:34:13;12.55;;;8.40;;
55003;SDS011;40900;52.710;6.438;2023-04-15T02:36:39;13.60;;;8.38;;
55003;SDS011;40900;52.710;6.438;2023-04-15T02:39:05;13.20;;;8.23;;
55003;SDS011;40900;52.710;6.438;2023-04-15T02:41:31;16.30;;;8.57;;
55003;SDS011;40900;52.710;6.438;2023-04-15T02:43:57;14.88;;;8.13;;
55003;SDS011;40900;52.710;6.438;2023-04-15T02:46:23;13.40;;;7.82;;
55003;SDS011;40900;52.710;6.438;2023-04-15T02:48:49;10.25;;;7.90;;
55003;SDS011;40900;52.710;6.438;2023-04-15T02:51:18;13.40;;;7.95;;
55003;SDS011;40900;52.710;6.438;2023-04-15T02:53:45;13.75;;;8.90;;
55003;SDS011;40900;52.710;6.438;2023-04-15T02:56:11;13.68;;;8.45;;
55003;SDS011;40900;52.710;6.438;2023-04-15T02:58:39;14.38;;;9.20;;
55003;SDS011;40900;52.710;6.438;2023-04-15T03:01:05;13.57;;;8.00;;
55003;SDS011;40900;52.710;6.438;2023-04-15T03:03:32;11.80;;;7.88;;
55003;SDS011;40900;52.710;6.438;2023-04-15T03:05:58;14.45;;;8.80;;
55003;SDS011;40900;52.710;6.438;2023-04-15T03:08:24;14.02;;;8.75;;
55003;SDS011;40900;52.710;6.438;2023-04-15T03:10:50;14.65;;;9.02;;
55003;SDS011;40900;52.710;6.438;2023-04-15T03:13:17;13.15;;;8.45;;
55003;SDS011;40900;52.710;6.438;2023-04-15T03:15:45;12.82;;;8.25;;
55003;SDS011;40900;52.710;6.438;2023-04-15T03:18:11;13.63;;;8.52;;
55003;SDS011;40900;52.710;6.438;2023-04-15T03:20:36;15.35;;;9.13;;
55003;SDS011;40900;52.710;6.438;2023-04-15T03:23:02;14.45;;;9.35;;
55003;SDS011;40900;52.710;6.438;2023-04-15T03:25:28;14.80;;;8.90;;
55003;SDS011;40900;52.710;6.438;2023-04-15T03:27:54;11.88;;;9.23;;
55003;SDS011;40900;52.710;6.438;2023-04-15T03:30:19;14.23;;;9.40;;
55003;SDS011;40900;52.710;6.438;2023-04-15T03:32:45;15.23;;;9.93;;
55003;SDS011;40900;52.710;6.438;2023-04-15T03:35:11;15.40;;;9.65;;
55003;SDS011;40900;52.710;6.438;2023-04-15T03:37:37;12.30;;;9.82;;
55003;SDS011;40900;52.710;6.438;2023-04-15T03:40:02;12.55;;;8.85;;
55003;SDS011;40900;52.710;6.438;2023-04-15T03:42:28;14.93;;;9.88;;
55003;SDS011;40900;52.710;6.438;2023-04-15T03:44:54;14.15;;;10.73;;
55003;SDS011;40900;52.710;6.438;2023-04-15T03:47:20;14.95;;;10.68;;
55003;SDS011;40900;52.710;6.438;2023-04-15T03:49:45;15.85;;;10.85;;
55003;SDS011;40900;52.710;6.438;2023-04-15T03:52:11;16.20;;;11.60;;
55003;SDS011;40900;52.710;6.438;2023-04-15T03:54:37;15.73;;;10.90;;
55003;SDS011;40900;52.710;6.438;2023-04-15T03:57:03;15.15;;;11.73;;
55003;SDS011;40900;52.710;6.438;2023-04-15T03:59:28;15.73;;;11.30;;
55003;SDS011;40900;52.710;6.438;2023-04-15T04:01:54;20.23;;;12.38;;
55003;SDS011;40900;52.710;6.438;2023-04-15T04:04:20;17.20;;;12.80;;
55003;SDS011;40900;52.710;6.438;2023-04-15T04:06:46;14.88;;;10.93;;
55003;SDS011;40900;52.710;6.438;2023-04-15T04:09:12;17.27;;;11.10;;
55003;SDS011;40900;52.710;6.438;2023-04-15T04:11:37;21.90;;;12.55;;
55003;SDS011;40900;52.710;6.438;2023-04-15T04:14:03;19.40;;;12.45;;
55003;SDS011;40900;52.710;6.438;2023-04-15T04:16:29;18.27;;;11.65;;
55003;SDS011;40900;52.710;6.438;2023-04-15T04:18:54;16.63;;;12.27;;
55003;SDS011;40900;52.710;6.438;2023-04-15T04:21:20;17.60;;;12.23;;
55003;SDS011;40900;52.710;6.438;2023-04-15T04:23:46;19.08;;;13.30;;
55003;SDS011;40900;52.710;6.438;2023-04-15T04:26:12;18.02;;;12.68;;
55003;SDS011;40900;52.710;6.438;2023-04-15T04:28:37;15.73;;;12.18;;
55003;SDS011;40900;52.710;6.438;2023-04-15T04:31:05;19.85;;;12.80;;
55003;SDS011;40900;52.710;6.438;2023-04-15T04:33:31;17.27;;;13.15;;
55003;SDS011;40900;52.710;6.438;2023-04-15T04:35:57;16.50;;;11.93;;
55003;SDS011;40900;52.710;6.438;2023-04-15T04:38:23;20.10;;;13.38;;
55003;SDS011;40900;52.710;6.438;2023-04-15T04:40:49;17.95;;;12.63;;
55003;SDS011;40900;52.710;6.438;2023-04-15T04:43:15;19.17;;;13.20;;
55003;SDS011;40900;52.710;6.438;2023-04-15T04:45:41;19.30;;;13.27;;
55003;SDS011;40900;52.710;6.438;2023-04-15T04:48:07;17.90;;;13.55;;
55003;SDS011;40900;52.710;6.438;2023-04-15T04:50:34;16.85;;;13.80;;
55003;SDS011;40900;52.710;6.438;2023-04-15T04:53:00;19.42;;;12.88;;
55003;SDS011;40900;52.710;6.438;2023-04-15T04:55:27;16.55;;;12.27;;
55003;SDS011;40900;52.710;6.438;2023-04-15T04:57:52;21.00;;;13.23;;
55003;SDS011;40900;52.710;6.438;2023-04-15T05:00:18;18.05;;;13.68;;
55003;SDS011;40900;52.710;6.438;2023-04-15T05:02:44;18.10;;;13.25;;
55003;SDS011;40900;52.710;6.438;2023-04-15T05:05:10;18.70;;;13.38;;
55003;SDS011;40900;52.710;6.438;2023-04-15T05:07:37;17.30;;;13.13;;
55003;SDS011;40900;52.710;6.438;2023-04-15T05:10:03;18.75;;;13.43;;
55003;SDS011;40900;52.710;6.438;2023-04-15T05:12:30;20.45;;;13.60;;
55003;SDS011;40900;52.710;6.438;2023-04-15T05:14:56;17.80;;;13.07;;
55003;SDS011;40900;52.710;6.438;2023-04-15T05:17:21;22.55;;;14.05;;
55003;SDS011;40900;52.710;6.438;2023-04-15T05:19:47;21.13;;;14.43;;
55003;SDS011;40900;52.710;6.438;2023-04-15T05:22:13;18.13;;;13.85;;
55003;SDS011;40900;52.710;6.438;2023-04-15T05:24:39;21.55;;;14.27;;
55003;SDS011;40900;52.710;6.438;2023-04-15T05:27:04;19.42;;;14.27;;
55003;SDS011;40900;52.710;6.438;2023-04-15T05:29:30;19.80;;;14.18;;
55003;SDS011;40900;52.710;6.438;2023-04-15T05:31:56;18.75;;;14.93;;
55003;SDS011;40900;52.710;6.438;2023-04-15T05:34:21;19.40;;;13.88;;
55003;SDS011;40900;52.710;6.438;2023-04-15T05:36:47;21.05;;;14.07;;
55003;SDS011;40900;52.710;6.438;2023-04-15T05:39:13;22.15;;;15.82;;
55003;SDS011;40900;52.710;6.438;2023-04-15T05:41:39;19.88;;;14.90;;
55003;SDS011;40900;52.710;6.438;2023-04-15T05:44:05;18.67;;;14.55;;
55003;SDS011;40900;52.710;6.438;2023-04-15T05:46:30;20.20;;;13.95;;
55003;SDS011;40900;52.710;6.438;2023-04-15T05:48:56;17.92;;;14.68;;
55003;SDS011;40900;52.710;6.438;2023-04-15T05:51:21;17.48;;;13.80;;
55003;SDS011;40900;52.710;6.438;2023-04-15T05:53:47;18.25;;;13.95;;
55003;SDS011;40900;52.710;6.438;2023-04-15T05:56:13;20.52;;;14.32;;
55003;SDS011;40900;52.710;6.438;2023-04-15T05:58:38;16.88;;;14.43;;
55003;SDS011;40900;52.710;6.438;2023-04-15T06:01:04;17.70;;;14.73;;
55003;SDS011;40900;52.710;6.438;2023-04-15T06:03:30;18.17;;;14.82;;
55003;SDS011;40900;52.710;6.438;2023-04-15T06:05:56;18.73;;;14.05;;
55003;SDS011;40900;52.710;6.438;2023-04-15T06:08:21;18.02;;;14.70;;
55003;SDS011;40900;52.710;6.438;2023-04-15T06:10:47;21.80;;;15.60;;
55003;SDS011;40900;52.710;6.438;2023-04-15T06:13:13;19.48;;;14.88;;
55003;SDS011;40900;52.710;6.438;2023-04-15T06:15:38;19.45;;;15.35;;
55003;SDS011;40900;52.710;6.438;2023-04-15T06:18:04;18.02;;;14.60;;
55003;SDS011;40900;52.710;6.438;2023-04-15T06:20:30;17.23;;;15.30;;
55003;SDS011;40900;52.710;6.438;2023-04-15T06:22:56;19.70;;;14.40;;
55003;SDS011;40900;52.710;6.438;2023-04-15T06:25:22;18.67;;;14.50;;
55003;SDS011;40900;52.710;6.438;2023-04-15T06:27:48;18.15;;;14.55;;
55003;SDS011;40900;52.710;6.438;2023-04-15T06:30:13;21.70;;;14.02;;
55003;SDS011;40900;52.710;6.438;2023-04-15T06:32:39;18.35;;;13.70;;
55003;SDS011;40900;52.710;6.438;2023-04-15T06:35:05;18.85;;;13.82;;
55003;SDS011;40900;52.710;6.438;2023-04-15T06:37:31;17.90;;;13.55;;
55003;SDS011;40900;52.710;6.438;2023-04-15T06:39:56;15.32;;;13.30;;
55003;SDS011;40900;52.710;6.438;2023-04-15T06:42:22;17.08;;;13.40;;
55003;SDS011;40900;52.710;6.438;2023-04-15T06:44:48;16.35;;;13.93;;
55003;SDS011;40900;52.710;6.438;2023-04-15T06:47:14;17.95;;;14.13;;
55003;SDS011;40900;52.710;6.438;2023-04-15T06:49:40;15.85;;;13.15;;
55003;SDS011;40900;52.710;6.438;2023-04-15T06:52:07;17.58;;;13.88;;
55003;SDS011;40900;52.710;6.438;2023-04-15T06:54:34;17.10;;;14.30;;
55003;SDS011;40900;52.710;6.438;2023-04-15T06:57:00;19.38;;;13.85;;
55003;SDS011;40900;52.710;6.438;2023-04-15T06:59:25;17.67;;;13.70;;
55003;SDS011;40900;52.710;6.438;2023-04-15T07:01:51;18.50;;;14.77;;
55003;SDS011;40900;52.710;6.438;2023-04-15T07:04:17;20.55;;;14.27;;
55003;SDS011;40900;52.710;6.438;2023-04-15T07:06:43;15.98;;;13.43;;
55003;SDS011;40900;52.710;6.438;2023-04-15T07:09:09;21.70;;;14.80;;
55003;SDS011;40900;52.710;6.438;2023-04-15T07:11:34;17.45;;;14.32;;
55003;SDS011;40900;52.710;6.438;2023-04-15T07:14:00;19.90;;;13.45;;
55003;SDS011;40900;52.710;6.438;2023-04-15T07:16:26;18.98;;;14.13;;
55003;SDS011;40900;52.710;6.438;2023-04-15T07:18:52;18.15;;;13.15;;
55003;SDS011;40900;52.710;6.438;2023-04-15T07:21:18;17.25;;;13.70;;
55003;SDS011;40900;52.710;6.438;2023-04-15T07:23:44;18.75;;;13.52;;
55003;SDS011;40900;52.710;6.438;2023-04-15T07:26:09;18.63;;;13.45;;
55003;SDS011;40900;52.710;6.438;2023-04-15T07:28:36;14.80;;;13.20;;
55003;SDS011;40900;52.710;6.438;2023-04-15T07:31:01;17.30;;;13.13;;
55003;SDS011;40900;52.710;6.438;2023-04-15T07:33:27;15.13;;;11.93;;
55003;SDS011;40900;52.710;6.438;2023-04-15T07:35:53;16.88;;;13.30;;
55003;SDS011;40900;52.710;6.438;2023-04-15T07:38:19;16.80;;;12.73;;
55003;SDS011;40900;52.710;6.438;2023-04-15T07:40:45;15.55;;;12.27;;
55003;SDS011;40900;52.710;6.438;2023-04-15T07:43:11;16.48;;;11.68;;
55003;SDS011;40900;52.710;6.438;2023-04-15T07:45:37;15.25;;;12.18;;
55003;SDS011;40900;52.710;6.438;2023-04-15T07:48:03;13.60;;;11.38;;
55003;SDS011;40900;52.710;6.438;2023-04-15T07:50:30;17.40;;;11.73;;
55003;SDS011;40900;52.710;6.438;2023-04-15T07:52:56;13.27;;;10.65;;
55003;SDS011;40900;52.710;6.438;2023-04-15T07:55:22;13.18;;;10.30;;
55003;SDS011;40900;52.710;6.438;2023-04-15T07:57:48;13.40;;;11.48;;
55003;SDS011;40900;52.710;6.438;2023-04-15T08:00:14;14.77;;;9.95;;
55003;SDS011;40900;52.710;6.438;2023-04-15T08:02:41;13.10;;;10.30;;
55003;SDS011;40900;52.710;6.438;2023-04-15T08:05:08;11.95;;;10.05;;
55003;SDS011;40900;52.710;6.438;2023-04-15T08:07:36;12.82;;;9.48;;
55003;SDS011;40900;52.710;6.438;2023-04-15T08:10:02;11.57;;;8.93;;
55003;SDS011;40900;52.710;6.438;2023-04-15T08:12:28;13.98;;;9.77;;
55003;SDS011;40900;52.710;6.438;2023-04-15T08:14:54;11.32;;;9.10;;
55003;SDS011;40900;52.710;6.438;2023-04-15T08:17:21;13.00;;;9.10;;
55003;SDS011;40900;52.710;6.438;2023-04-15T08:19:47;13.35;;;9.48;;
55003;SDS011;40900;52.710;6.438;2023-04-15T08:22:13;11.45;;;9.45;;
55003;SDS011;40900;52.710;6.438;2023-04-15T08:24:39;11.63;;;9.00;;
55003;SDS011;40900;52.710;6.438;2023-04-15T08:27:05;11.20;;;8.48;;
55003;SDS011;40900;52.710;6.438;2023-04-15T08:29:32;12.70;;;8.38;;
55003;SDS011;40900;52.710;6.438;2023-04-15T08:31:58;11.80;;;8.38;;
55003;SDS011;40900;52.710;6.438;2023-04-15T08:34:25;10.10;;;8.27;;
55003;SDS011;40900;52.710;6.438;2023-04-15T08:36:51;15.43;;;8.35;;
55003;SDS011;40900;52.710;6.438;2023-04-15T08:39:17;12.05;;;8.68;;
55003;SDS011;40900;52.710;6.438;2023-04-15T08:41:47;10.93;;;8.05;;
55003;SDS011;40900;52.710;6.438;2023-04-15T08:44:20;9.15;;;7.05;;
55003;SDS011;40900;52.710;6.438;2023-04-15T08:46:47;10.30;;;5.45;;
55003;SDS011;40900;52.710;6.438;2023-04-15T08:49:14;9.63;;;5.70;;
55003;SDS011;40900;52.710;6.438;2023-04-15T08:51:41;7.28;;;5.25;;
55003;SDS011;40900;52.710;6.438;2023-04-15T08:54:08;7.93;;;5.75;;
55003;SDS011;40900;52.710;6.438;2023-04-15T08:56:35;7.85;;;5.10;;
55003;SDS011;40900;52.710;6.438;2023-04-15T08:59:03;7.20;;;5.20;;
55003;SDS011;40900;52.710;6.438;2023-04-15T09:01:30;6.90;;;5.05;;
55003;SDS011;40900;52.710;6.438;2023-04-15T09:03:56;8.18;;;4.63;;
55003;SDS011;40900;52.710;6.438;2023-04-15T09:06:23;8.40;;;5.00;;
55003;SDS011;40900;52.710;6.438;2023-04-15T09:08:49;8.27;;;4.90;;
55003;SDS011;40900;52.710;6.438;2023-04-15T09:11:16;5.95;;;4.65;;
55003;SDS011;40900;52.710;6.438;2023-04-15T09:13:42;7.75;;;5.03;;
55003;SDS011;40900;52.710;6.438;2023-04-15T09:16:08;8.85;;;5.30;;
55003;SDS011;40900;52.710;6.438;2023-04-15T09:18:34;9.65;;;5.07;;
55003;SDS011;40900;52.710;6.438;2023-04-15T09:21:07;6.90;;;5.50;;
55003;SDS011;40900;52.710;6.438;2023-04-15T09:23:39;7.85;;;5.47;;
55003;SDS011;40900;52.710;6.438;2023-04-15T09:26:17;8.10;;;5.70;;
55003;SDS011;40900;52.710;6.438;2023-04-15T09:28:43;9.35;;;5.88;;
55003;SDS011;40900;52.710;6.438;2023-04-15T09:31:09;9.93;;;6.05;;
55003;SDS011;40900;52.710;6.438;2023-04-15T09:33:35;9.05;;;5.20;;
55003;SDS011;40900;52.710;6.438;2023-04-15T09:36:17;8.57;;;5.03;;
55003;SDS011;40900;52.710;6.438;2023-04-15T09:38:56;9.07;;;5.75;;
55003;SDS011;40900;52.710;6.438;2023-04-15T09:41:26;7.55;;;5.07;;
55003;SDS011;40900;52.710;6.438;2023-04-15T09:43:52;11.50;;;5.30;;
55003;SDS011;40900;52.710;6.438;2023-04-15T09:46:18;7.60;;;5.18;;
55003;SDS011;40900;52.710;6.438;2023-04-15T09:48:44;8.75;;;5.32;;
55003;SDS011;40900;52.710;6.438;2023-04-15T09:51:10;8.27;;;4.88;;
55003;SDS011;40900;52.710;6.438;2023-04-15T09:53:35;6.80;;;4.80;;
55003;SDS011;40900;52.710;6.438;2023-04-15T09:56:02;10.95;;;4.32;;
55003;SDS011;40900;52.710;6.438;2023-04-15T09:58:29;6.47;;;4.50;;
55003;SDS011;40900;52.710;6.438;2023-04-15T10:00:57;6.72;;;3.83;;
55003;SDS011;40900;52.710;6.438;2023-04-15T10:03:32;6.32;;;3.70;;
55003;SDS011;40900;52.710;6.438;2023-04-15T10:06:02;5.20;;;3.55;;
55003;SDS011;40900;52.710;6.438;2023-04-15T10:08:30;7.78;;;3.97;;
55003;SDS011;40900;52.710;6.438;2023-04-15T10:10:59;7.55;;;3.85;;
55003;SDS011;40900;52.710;6.438;2023-04-15T10:13:27;7.05;;;3.60;;
55003;SDS011;40900;52.710;6.438;2023-04-15T10:16:04;9.23;;;3.30;;
55003;SDS011;40900;52.710;6.438;2023-04-15T10:18:39;7.18;;;3.22;;
55003;SDS011;40900;52.710;6.438;2023-04-15T10:21:07;5.45;;;2.47;;
55003;SDS011;40900;52.710;6.438;2023-04-15T10:23:33;4.38;;;2.63;;
55003;SDS011;40900;52.710;6.438;2023-04-15T10:25:59;5.85;;;2.80;;
55003;SDS011;40900;52.710;6.438;2023-04-15T10:28:25;4.88;;;2.70;;
55003;SDS011;40900;52.710;6.438;2023-04-15T10:30:52;6.65;;;2.65;;
55003;SDS011;40900;52.710;6.438;2023-04-15T10:33:19;5.28;;;2.65;;
55003;SDS011;40900;52.710;6.438;2023-04-15T10:35:47;7.90;;;3.10;;
55003;SDS011;40900;52.710;6.438;2023-04-15T10:38:35;3.92;;;2.35;;
55003;SDS011;40900;52.710;6.438;2023-04-15T10:49:14;4.88;;;2.30;;
55003;SDS011;40900;52.710;6.438;2023-04-15T10:51:45;6.85;;;3.58;;
55003;SDS011;40900;52.710;6.438;2023-04-15T10:54:16;5.18;;;2.75;;
55003;SDS011;40900;52.710;6.438;2023-04-15T10:59:30;7.63;;;4.30;;
55003;SDS011;40900;52.710;6.438;2023-04-15T11:02:00;3.53;;;2.70;;
55003;SDS011;40900;52.710;6.438;2023-04-15T11:10:00;4.95;;;2.67;;
55003;SDS011;40900;52.710;6.438;2023-04-15T11:12:35;4.70;;;2.30;;
55003;SDS011;40900;52.710;6.438;2023-04-15T11:15:47;5.53;;;2.60;;
55003;SDS011;40900;52.710;6.438;2023-04-15T11:17:52;3.63;;;2.13;;
55003;SDS011;40900;52.710;6.438;2023-04-15T11:20:18;2.78;;;2.08;;
55003;SDS011;40900;52.710;6.438;2023-04-15T11:22:47;5.05;;;2.30;;
55003;SDS011;40900;52.710;6.438;2023-04-15T11:25:24;3.42;;;2.17;;
55003;SDS011;40900;52.710;6.438;2023-04-15T11:27:54;4.22;;;2.30;;
55003;SDS011;40900;52.710;6.438;2023-04-15T11:30:21;4.38;;;2.00;;
55003;SDS011;40900;52.710;6.438;2023-04-15T11:32:49;4.47;;;1.92;;
55003;SDS011;40900;52.710;6.438;2023-04-15T11:35:15;6.03;;;2.00;;
55003;SDS011;40900;52.710;6.438;2023-04-15T11:37:42;5.25;;;1.85;;
55003;SDS011;40900;52.710;6.438;2023-04-15T11:40:09;4.28;;;2.33;;
55003;SDS011;40900;52.710;6.438;2023-04-15T11:42:35;3.35;;;1.90;;
55003;SDS011;40900;52.710;6.438;2023-04-15T11:45:10;5.93;;;2.00;;
55003;SDS011;40900;52.710;6.438;2023-04-15T11:47:38;8.40;;;2.20;;
55003;SDS011;40900;52.710;6.438;2023-04-15T11:50:18;5.65;;;2.30;;
55003;SDS011;40900;52.710;6.438;2023-04-15T11:52:57;6.68;;;2.20;;
55003;SDS011;40900;52.710;6.438;2023-04-15T11:55:24;5.45;;;2.13;;
55003;SDS011;40900;52.710;6.438;2023-04-15T11:58:04;4.13;;;1.98;;
55003;SDS011;40900;52.710;6.438;2023-04-15T12:00:34;5.47;;;2.35;;
55003;SDS011;40900;52.710;6.438;2023-04-15T12:16:56;7.43;;;2.30;;
55003;SDS011;40900;52.710;6.438;2023-04-15T12:19:40;7.30;;;2.63;;
55003;SDS011;40900;52.710;6.438;2023-04-15T12:24:37;6.93;;;2.72;;
55003;SDS011;40900;52.710;6.438;2023-04-15T12:27:07;10.27;;;3.53;;
55003;SDS011;40900;52.710;6.438;2023-04-15T12:29:37;6.82;;;2.80;;
55003;SDS011;40900;52.710;6.438;2023-04-15T12:32:08;11.52;;;2.63;;
55003;SDS011;40900;52.710;6.438;2023-04-15T12:34:36;10.13;;;2.40;;
55003;SDS011;40900;52.710;6.438;2023-04-15T12:37:04;7.93;;;2.10;;
55003;SDS011;40900;52.710;6.438;2023-04-15T12:39:36;9.85;;;2.58;;
55003;SDS011;40900;52.710;6.438;2023-04-15T12:42:05;10.05;;;2.13;;
55003;SDS011;40900;52.710;6.438;2023-04-15T12:44:32;4.88;;;2.22;;
55003;SDS011;40900;52.710;6.438;2023-04-15T12:46:59;7.35;;;1.95;;
55003;SDS011;40900;52.710;6.438;2023-04-15T12:49:25;7.68;;;2.30;;
55003;SDS011;40900;52.710;6.438;2023-04-15T12:51:52;6.63;;;2.20;;
55003;SDS011;40900;52.710;6.438;2023-04-15T12:54:19;7.00;;;2.22;;
55003;SDS011;40900;52.710;6.438;2023-04-15T12:56:45;10.25;;;2.05;;
55003;SDS011;40900;52.710;6.438;2023-04-15T12:59:13;6.30;;;2.38;;
55003;SDS011;40900;52.710;6.438;2023-04-15T13:01:40;9.98;;;2.83;;
55003;SDS011;40900;52.710;6.438;2023-04-15T13:04:06;6.97;;;2.22;;
55003;SDS011;40900;52.710;6.438;2023-04-15T13:06:32;7.93;;;2.47;;
55003;SDS011;40900;52.710;6.438;2023-04-15T13:09:01;7.20;;;2.40;;
55003;SDS011;40900;52.710;6.438;2023-04-15T13:11:27;5.97;;;2.00;;
55003;SDS011;40900;52.710;6.438;2023-04-15T13:14:02;8.07;;;2.42;;
55003;SDS011;40900;52.710;6.438;2023-04-15T13:16:30;10.77;;;2.20;;
55003;SDS011;40900;52.710;6.438;2023-04-15T13:18:56;8.38;;;2.28;;
55003;SDS011;40900;52.710;6.438;2023-04-15T13:21:26;6.78;;;2.47;;
55003;SDS011;40900;52.710;6.438;2023-04-15T13:23:52;7.97;;;2.45;;
55003;SDS011;40900;52.710;6.438;2023-04-15T13:26:18;12.48;;;2.58;;
55003;SDS011;40900;52.710;6.438;2023-04-15T13:28:44;6.32;;;2.00;;
55003;SDS011;40900;52.710;6.438;2023-04-15T13:31:10;8.80;;;2.10;;
55003;SDS011;40900;52.710;6.438;2023-04-15T13:33:36;6.07;;;2.28;;
55003;SDS011;40900;52.710;6.438;2023-04-15T13:36:02;9.55;;;2.22;;
55003;SDS011;40900;52.710;6.438;2023-04-15T13:38:28;11.88;;;2.90;;
55003;SDS011;40900;52.710;6.438;2023-04-15T13:40:53;12.27;;;3.03;;
55003;SDS011;40900;52.710;6.438;2023-04-15T13:43:19;9.43;;;2.67;;
55003;SDS011;40900;52.710;6.438;2023-04-15T13:45:45;7.20;;;2.58;;
55003;SDS011;40900;52.710;6.438;2023-04-15T13:48:11;7.97;;;2.45;;
55003;SDS011;40900;52.710;6.438;2023-04-15T13:50:37;7.75;;;2.00;;
55003;SDS011;40900;52.710;6.438;2023-04-15T13:53:03;11.57;;;2.60;;
55003;SDS011;40900;52.710;6.438;2023-04-15T13:55:28;8.30;;;2.58;;
55003;SDS011;40900;52.710;6.438;2023-04-15T13:57:55;9.13;;;2.35;;
55003;SDS011;40900;52.710;6.438;2023-04-15T14:00:21;9.48;;;1.90;;
55003;SDS011;40900;52.710;6.438;2023-04-15T14:02:46;12.82;;;3.08;;
55003;SDS011;40900;52.710;6.438;2023-04-15T14:05:12;9.40;;;2.08;;
55003;SDS011;40900;52.710;6.438;2023-04-15T14:07:38;7.20;;;1.80;;
55003;SDS011;40900;52.710;6.438;2023-04-15T14:10:04;9.57;;;2.13;;
55003;SDS011;40900;52.710;6.438;2023-04-15T14:12:30;8.60;;;2.20;;
55003;SDS011;40900;52.710;6.438;2023-04-15T14:14:55;5.65;;;1.88;;
55003;SDS011;40900;52.710;6.438;2023-04-15T14:17:21;14.90;;;2.55;;
55003;SDS011;40900;52.710;6.438;2023-04-15T14:19:47;9.77;;;2.55;;
55003;SDS011;40900;52.710;6.438;2023-04-15T14:22:13;12.10;;;2.10;;
55003;SDS011;40900;52.710;6.438;2023-04-15T14:24:38;11.45;;;2.25;;
55003;SDS011;40900;52.710;6.438;2023-04-15T14:27:04;19.17;;;2.85;;
55003;SDS011;40900;52.710;6.438;2023-04-15T14:29:32;11.10;;;2.65;;
55003;SDS011;40900;52.710;6.438;2023-04-15T14:31:58;9.85;;;2.20;;
55003;SDS011;40900;52.710;6.438;2023-04-15T14:34:23;10.57;;;2.60;;
55003;SDS011;40900;52.710;6.438;2023-04-15T14:36:50;13.02;;;2.25;;
55003;SDS011;40900;52.710;6.438;2023-04-15T14:39:17;13.45;;;2.35;;
55003;SDS011;40900;52.710;6.438;2023-04-15T14:41:43;9.73;;;1.90;;
55003;SDS011;40900;52.710;6.438;2023-04-15T14:44:09;12.45;;;2.22;;
55003;SDS011;40900;52.710;6.438;2023-04-15T14:46:36;12.80;;;2.22;;
55003;SDS011;40900;52.710;6.438;2023-04-15T14:49:02;10.63;;;1.80;;
55003;SDS011;40900;52.710;6.438;2023-04-15T14:51:28;7.72;;;2.38;;
55003;SDS011;40900;52.710;6.438;2023-04-15T14:53:55;10.10;;;2.25;;
55003;SDS011;40900;52.710;6.438;2023-04-15T14:56:21;13.55;;;2.10;;
55003;SDS011;40900;52.710;6.438;2023-04-15T14:58:46;14.98;;;2.38;;
55003;SDS011;40900;52.710;6.438;2023-04-15T15:01:13;5.60;;;1.83;;
55003;SDS011;40900;52.710;6.438;2023-04-15T15:03:39;10.70;;;2.33;;
55003;SDS011;40900;52.710;6.438;2023-04-15T15:06:05;9.95;;;2.30;;